sensor_id;sensor_type;location;lat;lon;timestamp;pressure;altitude;pressure_sealevel;temperature;humidity
54816;BME280;40715;55.752;37.884;2022-10-31T00:03:19;97223.22;;;5.85;41.86
54816;BME280;40715;55.752;37.884;2022-10-31T00:05:49;97233.66;;;5.85;41.72
54816;BME280;40715;55.752;37.884;2022-10-31T00:14:06;97223.22;;;5.85;41.89
54816;BME280;40715;55.752;37.884;2022-10-31T00:16:52;97224.78;;;5.90;41.75
54816;BME280;40715;55.752;37.884;2022-10-31T00:19:37;97223.88;;;5.91;41.66
54816;BME280;40715;55.752;37.884;2022-10-31T00:22:23;97221.28;;;5.91;41.56
54816;BME280;40715;55.752;37.884;2022-10-31T00:24:50;97216.09;;;5.89;41.59
54816;BME280;40715;55.752;37.884;2022-10-31T00:27:16;97210.81;;;5.91;41.54
54816;BME280;40715;55.752;37.884;2022-10-31T00:30:02;97213.28;;;5.94;41.69
54816;BME280;40715;55.752;37.884;2022-10-31T00:32:47;97201.13;;;5.93;41.70
54816;BME280;40715;55.752;37.884;2022-10-31T00:35:33;97212.59;;;5.90;41.70
54816;BME280;40715;55.752;37.884;2022-10-31T00:38:19;97208.34;;;5.87;41.37
54816;BME280;40715;55.752;37.884;2022-10-31T00:41:04;97213.75;;;5.83;41.33
54816;BME280;40715;55.752;37.884;2022-10-31T00:46:36;97222.38;;;5.85;41.77
54816;BME280;40715;55.752;37.884;2022-10-31T00:55:16;97204.78;;;5.88;41.58
54816;BME280;40715;55.752;37.884;2022-10-31T01:00:48;97201.06;;;5.94;41.33
54816;BME280;40715;55.752;37.884;2022-10-31T01:09:15;97195.81;;;5.96;41.20
54816;BME280;40715;55.752;37.884;2022-10-31T01:12:00;97195.81;;;5.96;41.43
54816;BME280;40715;55.752;37.884;2022-10-31T01:14:46;97201.03;;;5.96;41.40
54816;BME280;40715;55.752;37.884;2022-10-31T01:17:13;97197.75;;;5.91;41.45
54816;BME280;40715;55.752;37.884;2022-10-31T01:19:59;97202.97;;;5.91;41.22
54816;BME280;40715;55.752;37.884;2022-10-31T01:25:30;97197.88;;;5.87;41.57
54816;BME280;40715;55.752;37.884;2022-10-31T01:28:15;97210.16;;;5.85;41.60
54816;BME280;40715;55.752;37.884;2022-10-31T01:30:42;97192.84;;;5.83;41.65
54816;BME280;40715;55.752;37.884;2022-10-31T01:36:17;97221.47;;;5.86;41.57
54816;BME280;40715;55.752;37.884;2022-10-31T01:39:08;97218.94;;;5.84;41.98
54816;BME280;40715;55.752;37.884;2022-10-31T01:42:17;97223.28;;;5.84;42.13
54816;BME280;40715;55.752;37.884;2022-10-31T01:44:55;97220.03;;;5.79;42.12
54816;BME280;40715;55.752;37.884;2022-10-31T01:48:00;97220.41;;;5.69;42.47
54816;BME280;40715;55.752;37.884;2022-10-31T01:53:18;97224.09;;;5.64;42.52
54816;BME280;40715;55.752;37.884;2022-10-31T01:56:04;97234.69;;;5.61;42.62
54816;BME280;40715;55.752;37.884;2022-10-31T01:58:50;97225.34;;;5.55;42.92
54816;BME280;40715;55.752;37.884;2022-10-31T02:04:04;97201.25;;;5.26;43.28
54816;BME280;40715;55.752;37.884;2022-10-31T02:07:20;97219.00;;;5.39;43.37
54816;BME280;40715;55.752;37.884;2022-10-31T02:10:09;97229.72;;;5.32;43.73
54816;BME280;40715;55.752;37.884;2022-10-31T02:12:57;97236.91;;;5.27;43.87
54816;BME280;40715;55.752;37.884;2022-10-31T02:15:25;97223.41;;;5.16;44.03
54816;BME280;40715;55.752;37.884;2022-10-31T02:30:25;97241.91;;;5.10;44.82
54816;BME280;40715;55.752;37.884;2022-10-31T02:33:35;97227.19;;;5.07;45.46
54816;BME280;40715;55.752;37.884;2022-10-31T02:36:20;97239.47;;;5.05;45.54
54816;BME280;40715;55.752;37.884;2022-10-31T02:39:32;97235.97;;;5.06;45.61
54816;BME280;40715;55.752;37.884;2022-10-31T02:45:13;97224.13;;;4.97;45.90
54816;BME280;40715;55.752;37.884;2022-10-31T02:51:05;97231.19;;;4.94;45.91
54816;BME280;40715;55.752;37.884;2022-10-31T02:53:36;97236.72;;;4.86;46.22
54816;BME280;40715;55.752;37.884;2022-10-31T02:56:22;97232.53;;;4.82;46.46
54816;BME280;40715;55.752;37.884;2022-10-31T02:59:07;97236.88;;;4.81;46.87
54816;BME280;40715;55.752;37.884;2022-10-31T03:11:29;97236.34;;;4.73;47.11
54816;BME280;40715;55.752;37.884;2022-10-31T03:14:20;97239.03;;;4.70;47.35
54816;BME280;40715;55.752;37.884;2022-10-31T03:17:18;97232.28;;;4.64;47.42
54816;BME280;40715;55.752;37.884;2022-10-31T03:19:49;97234.16;;;4.61;47.65
54816;BME280;40715;55.752;37.884;2022-10-31T03:22:40;97235.69;;;4.66;47.62
54816;BME280;40715;55.752;37.884;2022-10-31T03:25:27;97239.22;;;4.65;48.08
54816;BME280;40715;55.752;37.884;2022-10-31T03:28:14;97235.81;;;4.63;48.30
54816;BME280;40715;55.752;37.884;2022-10-31T03:31:00;97242.78;;;4.63;48.12
54816;BME280;40715;55.752;37.884;2022-10-31T03:36:38;97236.72;;;4.62;48.37
54816;BME280;40715;55.752;37.884;2022-10-31T03:39:08;97234.94;;;4.63;48.36
54816;BME280;40715;55.752;37.884;2022-10-31T03:41:42;97220.38;;;4.57;48.44
54816;BME280;40715;55.752;37.884;2022-10-31T03:44:19;97241.88;;;4.64;48.77
54816;BME280;40715;55.752;37.884;2022-10-31T03:47:05;97230.53;;;4.65;48.56
54816;BME280;40715;55.752;37.884;2022-10-31T03:50:09;97249.53;;;4.69;48.36
54816;BME280;40715;55.752;37.884;2022-10-31T03:53:09;97238.38;;;4.65;48.63
54816;BME280;40715;55.752;37.884;2022-10-31T03:56:32;97241.56;;;4.72;48.44
54816;BME280;40715;55.752;37.884;2022-10-31T04:02:17;97256.16;;;4.77;48.87
54816;BME280;40715;55.752;37.884;2022-10-31T04:04:46;97252.59;;;4.80;48.79
54816;BME280;40715;55.752;37.884;2022-10-31T04:07:15;97204.91;;;4.53;48.80
54816;BME280;40715;55.752;37.884;2022-10-31T04:10:04;97241.19;;;4.82;48.67
54816;BME280;40715;55.752;37.884;2022-10-31T04:15:20;97242.78;;;4.87;48.59
54816;BME280;40715;55.752;37.884;2022-10-31T04:18:07;97264.16;;;4.96;48.77
54816;BME280;40715;55.752;37.884;2022-10-31T04:20:37;97258.19;;;4.93;48.69
54816;BME280;40715;55.752;37.884;2022-10-31T04:23:25;97267.44;;;5.01;48.70
54816;BME280;40715;55.752;37.884;2022-10-31T04:26:11;97269.09;;;5.04;48.79
54816;BME280;40715;55.752;37.884;2022-10-31T04:28:57;97272.50;;;5.06;48.87
54816;BME280;40715;55.752;37.884;2022-10-31T04:31:43;97274.25;;;5.06;48.97
54816;BME280;40715;55.752;37.884;2022-10-31T04:36:56;97291.63;;;5.07;49.15
54816;BME280;40715;55.752;37.884;2022-10-31T04:39:42;97281.81;;;5.13;49.11
54816;BME280;40715;55.752;37.884;2022-10-31T04:42:09;97286.16;;;5.13;49.16
54816;BME280;40715;55.752;37.884;2022-10-31T04:44:54;97290.34;;;5.17;49.29
54816;BME280;40715;55.752;37.884;2022-10-31T04:47:21;97292.91;;;5.18;49.04
54816;BME280;40715;55.752;37.884;2022-10-31T04:52:52;97288.25;;;5.27;48.85
54816;BME280;40715;55.752;37.884;2022-10-31T04:55:22;97293.28;;;5.31;49.41
54816;BME280;40715;55.752;37.884;2022-10-31T04:57:49;97294.16;;;5.32;49.03
54816;BME280;40715;55.752;37.884;2022-10-31T05:00:36;97296.56;;;5.36;49.05
54816;BME280;40715;55.752;37.884;2022-10-31T05:03:03;97297.41;;;5.37;49.35
54816;BME280;40715;55.752;37.884;2022-10-31T05:05:49;97309.38;;;5.43;49.32
54816;BME280;40715;55.752;37.884;2022-10-31T05:08:43;97285.34;;;5.34;49.48
54816;BME280;40715;55.752;37.884;2022-10-31T05:11:10;97317.84;;;5.49;49.56
54816;BME280;40715;55.752;37.884;2022-10-31T05:13:37;97314.34;;;5.50;49.61
54816;BME280;40715;55.752;37.884;2022-10-31T05:18:51;97327.63;;;5.66;49.72
54816;BME280;40715;55.752;37.884;2022-10-31T05:24:22;97328.97;;;5.77;49.35
54816;BME280;40715;55.752;37.884;2022-10-31T05:26:50;97338.19;;;5.85;49.47
54816;BME280;40715;55.752;37.884;2022-10-31T05:29:17;97348.38;;;5.93;49.26
54816;BME280;40715;55.752;37.884;2022-10-31T05:31:44;97307.44;;;5.70;49.26
54816;BME280;40715;55.752;37.884;2022-10-31T05:34:11;97327.75;;;5.85;49.34
54816;BME280;40715;55.752;37.884;2022-10-31T05:36:37;97366.19;;;6.05;49.13
54816;BME280;40715;55.752;37.884;2022-10-31T05:39:20;97362.41;;;6.13;49.20
54816;BME280;40715;55.752;37.884;2022-10-31T05:41:47;97372.63;;;6.19;49.30
54816;BME280;40715;55.752;37.884;2022-10-31T05:44:13;97376.56;;;6.29;49.52
54816;BME280;40715;55.752;37.884;2022-10-31T05:47:17;97380.44;;;6.41;49.07
54816;BME280;40715;55.752;37.884;2022-10-31T05:49:45;97389.09;;;6.43;48.99
54816;BME280;40715;55.752;37.884;2022-10-31T05:52:11;97375.41;;;6.36;49.22
54816;BME280;40715;55.752;37.884;2022-10-31T05:57:25;97394.78;;;6.53;48.89
54816;BME280;40715;55.752;37.884;2022-10-31T06:00:28;97402.44;;;6.57;48.78
54816;BME280;40715;55.752;37.884;2022-10-31T06:03:14;97423.44;;;6.56;48.87
54816;BME280;40715;55.752;37.884;2022-10-31T06:05:41;97428.66;;;6.56;48.54
54816;BME280;40715;55.752;37.884;2022-10-31T06:08:26;97431.28;;;6.56;48.85
54816;BME280;40715;55.752;37.884;2022-10-31T06:10:54;97416.03;;;6.45;48.86
54816;BME280;40715;55.752;37.884;2022-10-31T06:13:21;97422.13;;;6.46;49.05
54816;BME280;40715;55.752;37.884;2022-10-31T06:18:33;97436.72;;;6.51;48.65
54816;BME280;40715;55.752;37.884;2022-10-31T06:21:18;97454.91;;;6.54;48.86
54816;BME280;40715;55.752;37.884;2022-10-31T06:24:04;97463.47;;;6.58;49.03
54816;BME280;40715;55.752;37.884;2022-10-31T06:26:43;97460.06;;;6.56;48.83
54816;BME280;40715;55.752;37.884;2022-10-31T06:29:10;97467.72;;;6.61;49.01
54816;BME280;40715;55.752;37.884;2022-10-31T06:34:42;97491.88;;;6.67;48.84
54816;BME280;40715;55.752;37.884;2022-10-31T06:39:55;97509.56;;;6.83;49.21
54816;BME280;40715;55.752;37.884;2022-10-31T06:42:22;97511.03;;;6.90;49.16
54816;BME280;40715;55.752;37.884;2022-10-31T06:47:34;97501.38;;;7.13;49.18
54816;BME280;40715;55.752;37.884;2022-10-31T06:50:16;97522.69;;;7.45;49.04
54816;BME280;40715;55.752;37.884;2022-10-31T06:53:02;97538.06;;;7.52;48.57
54816;BME280;40715;55.752;37.884;2022-10-31T06:55:29;97545.16;;;7.50;48.84
54816;BME280;40715;55.752;37.884;2022-10-31T07:01:01;97552.44;;;7.64;48.83
54816;BME280;40715;55.752;37.884;2022-10-31T07:03:28;97545.69;;;7.58;48.83
54816;BME280;40715;55.752;37.884;2022-10-31T07:06:04;97556.16;;;7.58;48.79
54816;BME280;40715;55.752;37.884;2022-10-31T07:08:31;97563.63;;;7.68;49.00
54816;BME280;40715;55.752;37.884;2022-10-31T07:10:58;97561.81;;;7.89;48.97
54816;BME280;40715;55.752;37.884;2022-10-31T07:13:25;97571.41;;;8.09;48.67
54816;BME280;40715;55.752;37.884;2022-10-31T07:16:11;97572.88;;;8.35;48.89
54816;BME280;40715;55.752;37.884;2022-10-31T07:18:44;97578.41;;;8.67;48.33
54816;BME280;40715;55.752;37.884;2022-10-31T07:21:11;97585.72;;;8.60;48.12
54816;BME280;40715;55.752;37.884;2022-10-31T07:23:38;97593.50;;;8.62;48.10
54816;BME280;40715;55.752;37.884;2022-10-31T07:28:50;97609.63;;;8.73;47.68
54816;BME280;40715;55.752;37.884;2022-10-31T07:31:17;97597.00;;;8.62;47.42
54816;BME280;40715;55.752;37.884;2022-10-31T07:33:47;97633.97;;;8.77;47.34
54816;BME280;40715;55.752;37.884;2022-10-31T07:36:14;97622.47;;;8.79;47.32
54816;BME280;40715;55.752;37.884;2022-10-31T07:38:41;97617.72;;;8.69;46.98
54816;BME280;40715;55.752;37.884;2022-10-31T07:41:08;97639.34;;;9.29;47.88
54816;BME280;40715;55.752;37.884;2022-10-31T07:43:53;97654.03;;;11.81;47.39
54816;BME280;40715;55.752;37.884;2022-10-31T07:46:38;97666.94;;;13.29;44.72
54816;BME280;40715;55.752;37.884;2022-10-31T07:49:05;97674.16;;;13.55;43.27
54816;BME280;40715;55.752;37.884;2022-10-31T07:51:52;97697.50;;;14.15;42.37
54816;BME280;40715;55.752;37.884;2022-10-31T07:54:37;97699.72;;;14.09;41.82
54816;BME280;40715;55.752;37.884;2022-10-31T07:57:04;97700.56;;;14.09;41.49
54816;BME280;40715;55.752;37.884;2022-10-31T07:59:31;97701.19;;;14.00;41.29
54816;BME280;40715;55.752;37.884;2022-10-31T08:02:17;97707.25;;;13.75;40.90
54816;BME280;40715;55.752;37.884;2022-10-31T08:04:44;97699.44;;;13.32;40.80
54816;BME280;40715;55.752;37.884;2022-10-31T08:07:11;97712.91;;;12.85;40.42
54816;BME280;40715;55.752;37.884;2022-10-31T08:09:38;97722.63;;;12.27;40.71
54816;BME280;40715;55.752;37.884;2022-10-31T08:12:05;97726.28;;;11.78;40.94
54816;BME280;40715;55.752;37.884;2022-10-31T08:14:31;97736.56;;;11.36;41.20
54816;BME280;40715;55.752;37.884;2022-10-31T08:16:58;97737.94;;;11.12;41.45
54816;BME280;40715;55.752;37.884;2022-10-31T08:19:25;97727.78;;;10.88;41.82
54816;BME280;40715;55.752;37.884;2022-10-31T08:21:53;97750.88;;;10.83;41.75
54816;BME280;40715;55.752;37.884;2022-10-31T08:24:21;97736.25;;;10.77;41.89
54816;BME280;40715;55.752;37.884;2022-10-31T08:26:48;97766.88;;;10.96;41.87
54816;BME280;40715;55.752;37.884;2022-10-31T08:29:34;97758.41;;;11.07;41.42
54816;BME280;40715;55.752;37.884;2022-10-31T08:32:01;97756.25;;;10.97;40.86
54816;BME280;40715;55.752;37.884;2022-10-31T08:34:46;97762.66;;;11.09;41.26
54816;BME280;40715;55.752;37.884;2022-10-31T08:37:13;97770.56;;;11.25;41.14
54816;BME280;40715;55.752;37.884;2022-10-31T08:40:17;97781.13;;;11.57;41.19
54816;BME280;40715;55.752;37.884;2022-10-31T08:45:30;97793.50;;;11.07;40.75
54816;BME280;40715;55.752;37.884;2022-10-31T08:47:59;97796.13;;;11.07;41.33
54816;BME280;40715;55.752;37.884;2022-10-31T08:50:28;97807.06;;;11.33;41.29
54816;BME280;40715;55.752;37.884;2022-10-31T08:55:59;97802.41;;;12.02;41.19
54816;BME280;40715;55.752;37.884;2022-10-31T09:04:15;97811.34;;;11.67;40.89
54816;BME280;40715;55.752;37.884;2022-10-31T09:09:45;97820.63;;;11.09;41.17
54816;BME280;40715;55.752;37.884;2022-10-31T09:12:12;97790.97;;;10.72;41.57
54816;BME280;40715;55.752;37.884;2022-10-31T09:14:39;97819.97;;;10.88;41.49
54816;BME280;40715;55.752;37.884;2022-10-31T09:17:47;97830.97;;;10.96;41.67
54816;BME280;40715;55.752;37.884;2022-10-31T09:20:34;97825.88;;;10.76;41.36
54816;BME280;40715;55.752;37.884;2022-10-31T09:23:21;97831.78;;;10.46;41.42
54816;BME280;40715;55.752;37.884;2022-10-31T09:25:50;97849.03;;;10.16;41.55
54816;BME280;40715;55.752;37.884;2022-10-31T09:28:20;97842.72;;;10.01;42.01
54816;BME280;40715;55.752;37.884;2022-10-31T09:30:51;97831.19;;;10.04;41.97
54816;BME280;40715;55.752;37.884;2022-10-31T09:33:19;97833.13;;;10.00;41.82
54816;BME280;40715;55.752;37.884;2022-10-31T09:35:46;97852.38;;;10.01;41.89
54816;BME280;40715;55.752;37.884;2022-10-31T09:38:18;97854.88;;;10.04;41.88
54816;BME280;40715;55.752;37.884;2022-10-31T09:44:12;97868.13;;;10.20;41.94
54816;BME280;40715;55.752;37.884;2022-10-31T09:47:26;97886.13;;;10.10;41.81
54816;BME280;40715;55.752;37.884;2022-10-31T09:53:14;97885.81;;;9.80;41.67
54816;BME280;40715;55.752;37.884;2022-10-31T09:55:45;97894.50;;;9.82;41.79
54816;BME280;40715;55.752;37.884;2022-10-31T10:13:47;97942.81;;;9.60;41.78
54816;BME280;40715;55.752;37.884;2022-10-31T10:27:49;97943.41;;;10.05;42.00
54816;BME280;40715;55.752;37.884;2022-10-31T10:30:45;97959.19;;;10.24;41.27
54816;BME280;40715;55.752;37.884;2022-10-31T10:36:16;97973.91;;;10.28;40.83
54816;BME280;40715;55.752;37.884;2022-10-31T10:39:35;97960.50;;;10.33;40.83
54816;BME280;40715;55.752;37.884;2022-10-31T10:45:16;97969.22;;;10.35;40.68
54816;BME280;40715;55.752;37.884;2022-10-31T10:48:16;97963.03;;;10.36;40.91
54816;BME280;40715;55.752;37.884;2022-10-31T10:50:50;97964.94;;;10.32;40.73
54816;BME280;40715;55.752;37.884;2022-10-31T10:56:37;97953.88;;;10.07;41.02
54816;BME280;40715;55.752;37.884;2022-10-31T10:59:13;97971.41;;;9.87;41.25
54816;BME280;40715;55.752;37.884;2022-10-31T11:01:43;97970.13;;;9.77;41.23
54816;BME280;40715;55.752;37.884;2022-10-31T11:04:30;97954.75;;;9.67;41.55
54816;BME280;40715;55.752;37.884;2022-10-31T11:07:16;97960.38;;;9.60;41.69
54816;BME280;40715;55.752;37.884;2022-10-31T11:09:43;97963.63;;;9.46;41.64
54816;BME280;40715;55.752;37.884;2022-10-31T11:12:31;97955.63;;;9.28;42.04
54816;BME280;40715;55.752;37.884;2022-10-31T11:15:22;97959.09;;;9.29;42.37
54816;BME280;40715;55.752;37.884;2022-10-31T11:20:36;97968.19;;;9.22;42.48
54816;BME280;40715;55.752;37.884;2022-10-31T11:26:45;97979.50;;;9.24;42.63
54816;BME280;40715;55.752;37.884;2022-10-31T11:32:24;97969.38;;;9.14;42.70
54816;BME280;40715;55.752;37.884;2022-10-31T11:37:47;97974.81;;;9.10;42.59
54816;BME280;40715;55.752;37.884;2022-10-31T11:40:33;97975.94;;;9.04;42.73
54816;BME280;40715;55.752;37.884;2022-10-31T11:43:01;97982.44;;;8.95;42.70
54816;BME280;40715;55.752;37.884;2022-10-31T11:45:32;97974.03;;;8.87;42.93
54816;BME280;40715;55.752;37.884;2022-10-31T11:48:01;97991.78;;;8.80;43.11
54816;BME280;40715;55.752;37.884;2022-10-31T11:50:39;97995.66;;;8.72;43.11
54816;BME280;40715;55.752;37.884;2022-10-31T11:56:10;97993.78;;;8.53;43.36
54816;BME280;40715;55.752;37.884;2022-10-31T11:59:03;97988.00;;;8.43;43.43
54816;BME280;40715;55.752;37.884;2022-10-31T12:01:50;97999.50;;;8.41;43.41
54816;BME280;40715;55.752;37.884;2022-10-31T12:07:22;97995.03;;;8.43;43.82
54816;BME280;40715;55.752;37.884;2022-10-31T12:09:50;98004.75;;;8.41;43.79
54816;BME280;40715;55.752;37.884;2022-10-31T12:12:39;98014.25;;;8.43;43.82
54816;BME280;40715;55.752;37.884;2022-10-31T12:15:33;98002.91;;;8.43;43.87
54816;BME280;40715;55.752;37.884;2022-10-31T12:30:02;98023.22;;;8.38;44.27
54816;BME280;40715;55.752;37.884;2022-10-31T12:33:32;98030.44;;;8.33;44.52
54816;BME280;40715;55.752;37.884;2022-10-31T12:47:54;98025.88;;;8.14;45.31
54816;BME280;40715;55.752;37.884;2022-10-31T12:50:28;98018.13;;;8.11;45.63
54816;BME280;40715;55.752;37.884;2022-10-31T13:05:40;98028.97;;;8.02;46.72
54816;BME280;40715;55.752;37.884;2022-10-31T13:08:28;98028.00;;;8.04;46.64
54816;BME280;40715;55.752;37.884;2022-10-31T13:14:56;98043.91;;;8.00;46.75
54816;BME280;40715;55.752;37.884;2022-10-31T13:20:28;98039.75;;;7.94;46.81
54816;BME280;40715;55.752;37.884;2022-10-31T13:26:23;98061.41;;;7.99;46.79
54816;BME280;40715;55.752;37.884;2022-10-31T13:29:27;98057.13;;;7.97;46.93
54816;BME280;40715;55.752;37.884;2022-10-31T13:31:53;98054.50;;;7.97;47.23
54816;BME280;40715;55.752;37.884;2022-10-31T13:42:55;98080.34;;;8.07;47.31
54816;BME280;40715;55.752;37.884;2022-10-31T13:45:25;98084.75;;;8.07;47.23
54816;BME280;40715;55.752;37.884;2022-10-31T13:50:33;98066.38;;;8.07;47.27
54816;BME280;40715;55.752;37.884;2022-10-31T13:53:34;98078.97;;;8.21;47.29
54816;BME280;40715;55.752;37.884;2022-10-31T13:58:36;98095.06;;;8.11;47.33
54816;BME280;40715;55.752;37.884;2022-10-31T14:01:16;98103.78;;;8.12;47.47
54816;BME280;40715;55.752;37.884;2022-10-31T14:06:51;98112.00;;;8.03;47.64
54816;BME280;40715;55.752;37.884;2022-10-31T14:12:24;98118.09;;;8.03;47.76
54816;BME280;40715;55.752;37.884;2022-10-31T14:15:05;98106.81;;;8.01;48.02
54816;BME280;40715;55.752;37.884;2022-10-31T14:17:56;98127.72;;;8.03;47.92
54816;BME280;40715;55.752;37.884;2022-10-31T14:20:43;98112.91;;;8.02;48.01
54816;BME280;40715;55.752;37.884;2022-10-31T14:28:39;98130.41;;;8.01;48.28
54816;BME280;40715;55.752;37.884;2022-10-31T14:31:29;98151.41;;;8.01;48.40
54816;BME280;40715;55.752;37.884;2022-10-31T14:46:10;98155.03;;;7.97;48.61
54816;BME280;40715;55.752;37.884;2022-10-31T14:49:22;98156.78;;;7.97;48.48
54816;BME280;40715;55.752;37.884;2022-10-31T14:51:47;98160.22;;;7.99;48.48
54816;BME280;40715;55.752;37.884;2022-10-31T14:54:35;98171.44;;;8.02;48.56
54816;BME280;40715;55.752;37.884;2022-10-31T15:03:35;98166.19;;;8.02;48.42
54816;BME280;40715;55.752;37.884;2022-10-31T15:15:14;98188.25;;;7.97;48.65
54816;BME280;40715;55.752;37.884;2022-10-31T15:17:49;98193.41;;;8.00;48.69
54816;BME280;40715;55.752;37.884;2022-10-31T15:20:19;98201.19;;;8.03;48.46
54816;BME280;40715;55.752;37.884;2022-10-31T15:23:05;98196.78;;;8.03;48.61
54816;BME280;40715;55.752;37.884;2022-10-31T15:28:23;98211.66;;;8.03;48.67
54816;BME280;40715;55.752;37.884;2022-10-31T15:30:55;98210.75;;;8.04;48.57
54816;BME280;40715;55.752;37.884;2022-10-31T15:33:25;98232.53;;;8.06;48.50
54816;BME280;40715;55.752;37.884;2022-10-31T15:36:18;98216.69;;;8.09;48.58
54816;BME280;40715;55.752;37.884;2022-10-31T15:38:48;98231.78;;;8.02;48.45
54816;BME280;40715;55.752;37.884;2022-10-31T15:47:18;98228.69;;;7.91;48.97
54816;BME280;40715;55.752;37.884;2022-10-31T15:50:18;98238.47;;;7.86;49.11
54816;BME280;40715;55.752;37.884;2022-10-31T15:53:05;98248.00;;;7.88;49.09
54816;BME280;40715;55.752;37.884;2022-10-31T15:55:37;98246.28;;;7.87;49.10
54816;BME280;40715;55.752;37.884;2022-10-31T15:58:13;98250.16;;;7.75;49.08
54816;BME280;40715;55.752;37.884;2022-10-31T16:03:28;98265.59;;;7.85;48.69
54816;BME280;40715;55.752;37.884;2022-10-31T16:06:01;98238.31;;;7.64;48.90
54816;BME280;40715;55.752;37.884;2022-10-31T16:10:57;98259.84;;;7.73;49.16
54816;BME280;40715;55.752;37.884;2022-10-31T16:13:27;98273.16;;;7.67;49.17
54816;BME280;40715;55.752;37.884;2022-10-31T16:16:15;98274.78;;;7.71;49.05
54816;BME280;40715;55.752;37.884;2022-10-31T16:19:04;98278.13;;;7.75;49.15
54816;BME280;40715;55.752;37.884;2022-10-31T16:21:35;98294.75;;;7.75;48.85
54816;BME280;40715;55.752;37.884;2022-10-31T16:26:38;98293.28;;;7.67;49.38
54816;BME280;40715;55.752;37.884;2022-10-31T16:29:26;98281.63;;;7.75;49.33
54816;BME280;40715;55.752;37.884;2022-10-31T16:32:28;98297.38;;;7.75;49.06
54816;BME280;40715;55.752;37.884;2022-10-31T16:37:44;98303.72;;;7.68;48.82
54816;BME280;40715;55.752;37.884;2022-10-31T16:40:13;98303.66;;;7.70;49.15
54816;BME280;40715;55.752;37.884;2022-10-31T16:42:41;98296.66;;;7.70;48.96
54816;BME280;40715;55.752;37.884;2022-10-31T16:45:15;98320.28;;;7.69;49.00
54816;BME280;40715;55.752;37.884;2022-10-31T16:47:42;98315.94;;;7.68;49.18
54816;BME280;40715;55.752;37.884;2022-10-31T16:50:15;98307.56;;;7.56;49.13
54816;BME280;40715;55.752;37.884;2022-10-31T16:53:00;98323.63;;;7.74;49.12
54816;BME280;40715;55.752;37.884;2022-10-31T16:58:35;98315.94;;;7.68;48.67
54816;BME280;40715;55.752;37.884;2022-10-31T17:01:05;98331.72;;;7.66;49.15
54816;BME280;40715;55.752;37.884;2022-10-31T17:03:33;98330.00;;;7.65;48.90
54816;BME280;40715;55.752;37.884;2022-10-31T17:06:19;98329.00;;;7.69;49.27
54816;BME280;40715;55.752;37.884;2022-10-31T17:09:27;98333.34;;;7.70;49.39
54816;BME280;40715;55.752;37.884;2022-10-31T17:12:20;98324.16;;;7.57;49.04
54816;BME280;40715;55.752;37.884;2022-10-31T17:14:50;98337.25;;;7.57;49.30
54816;BME280;40715;55.752;37.884;2022-10-31T17:17:18;98341.47;;;7.63;49.37
54816;BME280;40715;55.752;37.884;2022-10-31T17:19:45;98339.75;;;7.62;49.48
54816;BME280;40715;55.752;37.884;2022-10-31T17:22:13;98341.41;;;7.64;49.20
54816;BME280;40715;55.752;37.884;2022-10-31T17:24:43;98336.97;;;7.66;49.31
54816;BME280;40715;55.752;37.884;2022-10-31T17:27:13;98342.22;;;7.66;49.53
54816;BME280;40715;55.752;37.884;2022-10-31T17:33:03;98354.53;;;7.64;49.02
54816;BME280;40715;55.752;37.884;2022-10-31T17:35:49;98368.47;;;7.65;49.34
54816;BME280;40715;55.752;37.884;2022-10-31T17:38:16;98356.22;;;7.65;49.17
54816;BME280;40715;55.752;37.884;2022-10-31T17:40:43;98361.47;;;7.65;49.21
54816;BME280;40715;55.752;37.884;2022-10-31T17:43:10;98352.94;;;7.58;49.43
54816;BME280;40715;55.752;37.884;2022-10-31T17:48:26;98357.09;;;7.66;49.14
54816;BME280;40715;55.752;37.884;2022-10-31T17:50:58;98372.88;;;7.64;49.47
54816;BME280;40715;55.752;37.884;2022-10-31T17:53:46;98389.69;;;7.57;49.22
54816;BME280;40715;55.752;37.884;2022-10-31T17:56:13;98366.09;;;7.57;49.35
54816;BME280;40715;55.752;37.884;2022-10-31T17:58:40;98397.50;;;7.58;49.22
54816;BME280;40715;55.752;37.884;2022-10-31T18:01:10;98399.19;;;7.61;49.48
54816;BME280;40715;55.752;37.884;2022-10-31T18:03:37;98383.81;;;7.49;49.39
54816;BME280;40715;55.752;37.884;2022-10-31T18:06:05;98408.78;;;7.60;49.14
54816;BME280;40715;55.752;37.884;2022-10-31T18:09:08;98418.34;;;7.63;49.17
54816;BME280;40715;55.752;37.884;2022-10-31T18:11:40;98423.47;;;7.66;48.83
54816;BME280;40715;55.752;37.884;2022-10-31T18:16:54;98416.41;;;7.70;48.72
54816;BME280;40715;55.752;37.884;2022-10-31T18:19:22;98406.13;;;7.62;48.96
54816;BME280;40715;55.752;37.884;2022-10-31T18:21:48;98408.59;;;7.68;49.16
54816;BME280;40715;55.752;37.884;2022-10-31T18:24:16;98426.94;;;7.68;49.02
54816;BME280;40715;55.752;37.884;2022-10-31T18:26:43;98415.56;;;7.68;49.00
54816;BME280;40715;55.752;37.884;2022-10-31T18:29:10;98434.78;;;7.68;49.07
54816;BME280;40715;55.752;37.884;2022-10-31T18:31:38;98431.28;;;7.68;49.10
54816;BME280;40715;55.752;37.884;2022-10-31T18:34:05;98423.63;;;7.62;49.13
54816;BME280;40715;55.752;37.884;2022-10-31T18:36:32;98417.53;;;7.59;48.81
54816;BME280;40715;55.752;37.884;2022-10-31T18:38:59;98434.91;;;7.64;49.06
54816;BME280;40715;55.752;37.884;2022-10-31T18:41:26;98448.75;;;7.69;49.01
54816;BME280;40715;55.752;37.884;2022-10-31T18:46:41;98436.81;;;7.58;48.57
54816;BME280;40715;55.752;37.884;2022-10-31T18:49:08;98447.06;;;7.66;48.67
54816;BME280;40715;55.752;37.884;2022-10-31T18:51:54;98468.84;;;7.70;48.48
54816;BME280;40715;55.752;37.884;2022-10-31T18:57:26;98461.88;;;7.69;48.64
54816;BME280;40715;55.752;37.884;2022-10-31T18:59:53;98462.75;;;7.68;48.78
54816;BME280;40715;55.752;37.884;2022-10-31T19:02:20;98464.72;;;7.61;48.89
54816;BME280;40715;55.752;37.884;2022-10-31T19:05:06;98473.16;;;7.71;48.64
54816;BME280;40715;55.752;37.884;2022-10-31T19:11:01;98462.56;;;7.75;48.56